Time;durP1;ratioP1;P1;durP2;ratioP2;P2;SDS_P1;SDS_P2;PMS_P1;PMS_P2;Temp;Humidity;BMP_temperature;BMP_pressure;BME280_temperature;BME280_humidity;BME280_pressure;Samples;Min_cycle;Max_cycle;Signal;HPM_P1;HPM_P2
2023/07/16 00:00:51;;;;;;;11.95;3.65;;;;;;;14.51;100.00;100869.75;5054033;28;20033;-76
2023/07/16 00:03:16;;;;;;;9.50;3.25;;;;;;;14.47;100.00;100881.25;5054443;28;20032;-76
2023/07/16 00:05:42;;;;;;;9.85;3.47;;;;;;;14.44;100.00;100876.13;5054529;28;20436;-75
2023/07/16 00:08:07;;;;;;;9.88;3.00;;;;;;;14.40;100.00;100882.41;5055142;28;20480;-75
2023/07/16 00:10:36;;;;;;;10.00;3.17;;;;;;;14.37;100.00;100882.53;5053069;28;20025;-75
2023/07/16 00:13:05;;;;;;;9.25;3.10;;;;;;;14.40;100.00;100876.31;5053987;28;20024;-75
2023/07/16 00:15:30;;;;;;;8.98;3.50;;;;;;;14.38;100.00;100878.13;5053485;28;20803;-75
2023/07/16 00:17:56;;;;;;;9.07;3.30;;;;;;;14.42;100.00;100882.31;5054546;28;20020;-76
2023/07/16 00:20:24;;;;;;;5.30;2.95;;;;;;;14.35;100.00;100886.94;5053926;28;20043;-76
2023/07/16 00:22:50;;;;;;;8.63;3.38;;;;;;;14.36;100.00;100886.06;5053726;28;20126;-75
2023/07/16 00:25:15;;;;;;;14.90;3.25;;;;;;;14.40;100.00;100890.28;5054357;28;20024;-75
2023/07/16 00:27:41;;;;;;;5.88;3.00;;;;;;;14.45;100.00;100884.84;5053462;28;20021;-75
2023/07/16 00:30:07;;;;;;;6.72;3.28;;;;;;;14.54;100.00;100881.88;5053348;28;20539;-76
2023/07/16 00:32:33;;;;;;;7.88;3.03;;;;;;;14.61;100.00;100885.97;5053761;28;20035;-76
2023/07/16 00:34:58;;;;;;;8.35;3.33;;;;;;;14.62;100.00;100882.47;5053992;28;20112;-75
2023/07/16 00:37:24;;;;;;;13.00;3.40;;;;;;;14.63;100.00;100881.53;5053186;28;20110;-75
2023/07/16 00:39:49;;;;;;;13.68;3.70;;;;;;;14.65;100.00;100898.09;5053859;28;20043;-75
2023/07/16 00:42:14;;;;;;;12.32;3.55;;;;;;;14.66;100.00;100889.28;5054074;28;20120;-76
2023/07/16 00:44:40;;;;;;;5.53;2.95;;;;;;;14.72;100.00;100889.03;5049845;28;20028;-76
2023/07/16 00:47:05;;;;;;;9.18;3.17;;;;;;;14.72;100.00;100891.66;5053639;28;20021;-76
2023/07/16 00:49:31;;;;;;;6.45;3.33;;;;;;;14.58;100.00;100883.47;5052803;28;20029;-75
2023/07/16 00:51:59;;;;;;;9.85;3.60;;;;;;;14.57;100.00;100878.28;5053700;28;20075;-75
2023/07/16 00:54:24;;;;;;;8.30;3.40;;;;;;;14.55;100.00;100896.75;5053570;28;20029;-76
2023/07/16 00:56:49;;;;;;;8.18;3.45;;;;;;;14.52;100.00;100892.47;5051841;28;20021;-76
2023/07/16 00:59:15;;;;;;;8.98;3.42;;;;;;;14.49;100.00;100883.81;5051497;28;20507;-76
2023/07/16 01:01:41;;;;;;;6.47;3.15;;;;;;;14.48;100.00;100884.72;5053119;28;20483;-76
2023/07/16 01:04:06;;;;;;;6.10;3.13;;;;;;;14.43;100.00;100887.53;5052668;28;20048;-76
2023/07/16 01:06:39;;;;;;;10.43;3.88;;;;;;;14.45;100.00;100893.59;5051956;28;20112;-76
2023/07/16 01:09:20;;;;;;;8.88;3.55;;;;;;;14.50;100.00;100889.03;5048975;28;20091;-76
2023/07/16 01:11:47;;;;;;;9.07;3.63;;;;;;;14.44;100.00;100891.00;5051324;28;20082;-76
2023/07/16 01:14:14;;;;;;;9.57;3.90;;;;;;;14.53;100.00;100893.31;5053215;28;20124;-75
2023/07/16 01:16:41;;;;;;;12.80;4.28;;;;;;;14.50;100.00;100888.16;5050816;28;20494;-75
2023/07/16 01:19:06;;;;;;;8.35;3.60;;;;;;;14.49;100.00;100884.66;5052376;28;20029;-76
2023/07/16 01:21:41;;;;;;;7.18;3.40;;;;;;;14.43;100.00;100884.06;5050124;28;20032;-75
2023/07/16 01:24:12;;;;;;;7.72;3.40;;;;;;;14.41;100.00;100891.13;5053135;28;20067;-75
2023/07/16 01:27:09;;;;;;;9.88;3.80;;;;;;;14.39;100.00;100882.47;5052434;28;20032;-76
2023/07/16 01:29:54;;;;;;;8.88;3.60;;;;;;;14.43;100.00;100874.41;5051368;28;20017;-76
2023/07/16 01:32:20;;;;;;;10.02;3.78;;;;;;;14.42;100.00;100885.84;5052536;28;20052;-76
2023/07/16 01:34:51;;;;;;;7.53;3.28;;;;;;;14.44;100.00;100883.13;5052659;28;20021;-75
2023/07/16 01:37:16;;;;;;;8.82;3.95;;;;;;;14.41;100.00;100883.25;5052758;28;20493;-76
2023/07/16 01:39:42;;;;;;;12.30;3.85;;;;;;;14.31;100.00;100881.91;5052068;28;20031;-76
2023/07/16 01:42:07;;;;;;;7.88;3.63;;;;;;;14.29;100.00;100880.19;5052662;28;20065;-76
2023/07/16 01:44:32;;;;;;;9.77;4.05;;;;;;;14.35;100.00;100875.63;5052502;28;20033;-76
2023/07/16 01:47:09;;;;;;;8.25;3.63;;;;;;;14.34;100.00;100887.03;5052312;28;20416;-76
2023/07/16 01:49:35;;;;;;;12.60;4.50;;;;;;;14.33;100.00;100885.31;5051513;28;20526;-76
2023/07/16 01:52:02;;;;;;;8.25;4.03;;;;;;;14.26;100.00;100885.56;5052500;28;20025;-76
2023/07/16 01:54:28;;;;;;;9.02;4.07;;;;;;;14.32;100.00;100891.47;5051657;28;20029;-76
2023/07/16 01:56:53;;;;;;;8.95;4.45;;;;;;;14.32;100.00;100888.84;5048862;28;20025;-76
2023/07/16 01:59:18;;;;;;;13.65;4.70;;;;;;;14.32;100.00;100884.44;5051152;28;20029;-76
2023/07/16 02:01:44;;;;;;;10.15;4.63;;;;;;;14.38;100.00;100883.38;5051695;28;20033;-76
2023/07/16 02:04:09;;;;;;;12.60;4.75;;;;;;;14.37;100.00;100871.19;5052598;28;20048;-76
2023/07/16 02:06:34;;;;;;;12.13;5.30;;;;;;;14.38;100.00;100875.50;5051495;28;20021;-76
2023/07/16 02:09:00;;;;;;;12.10;4.82;;;;;;;14.42;100.00;100875.34;5052051;28;20033;-76
2023/07/16 02:11:25;;;;;;;13.05;5.13;;;;;;;14.43;100.00;100882.28;5049515;28;20032;-76
2023/07/16 02:13:50;;;;;;;12.57;5.80;;;;;;;14.48;100.00;100880.31;5050183;28;20076;-76
2023/07/16 02:16:16;;;;;;;12.82;4.95;;;;;;;14.48;100.00;100879.47;5051750;28;20036;-76
2023/07/16 02:18:41;;;;;;;16.15;5.75;;;;;;;14.47;100.00;100890.88;5048643;28;20021;-76
2023/07/16 02:21:06;;;;;;;11.68;5.55;;;;;;;14.34;100.00;100866.06;5051324;28;20576;-76
2023/07/16 02:23:31;;;;;;;10.48;5.00;;;;;;;14.42;100.00;100892.81;5051830;28;20028;-76
2023/07/16 02:25:57;;;;;;;10.05;5.05;;;;;;;14.40;100.00;100885.03;5052813;28;20024;-76
2023/07/16 02:28:22;;;;;;;10.70;4.93;;;;;;;14.45;100.00;100890.06;5056362;28;20021;-76
2023/07/16 02:30:50;;;;;;;9.75;4.85;;;;;;;14.46;100.00;100903.16;5058649;28;20048;-76
2023/07/16 02:33:15;;;;;;;16.70;5.68;;;;;;;14.46;100.00;100902.31;5055098;28;20033;-76
2023/07/16 02:35:46;;;;;;;13.73;5.15;;;;;;;14.45;100.00;100906.69;5059480;28;20471;-76
2023/07/16 02:38:11;;;;;;;12.95;5.57;;;;;;;14.46;100.00;100910.16;5053953;28;20055;-76
2023/07/16 02:40:42;;;;;;;13.07;4.93;;;;;;;14.46;100.00;100907.56;5054276;28;20068;-76
2023/07/16 02:43:08;;;;;;;10.82;5.22;;;;;;;14.42;100.00;100906.81;5052405;28;20029;-76
2023/07/16 02:45:33;;;;;;;9.85;4.80;;;;;;;14.41;100.00;100905.09;5060813;28;20031;-76
2023/07/16 02:47:58;;;;;;;13.25;4.95;;;;;;;14.35;100.00;100892.19;5053312;28;20033;-76
2023/07/16 02:50:24;;;;;;;10.98;5.32;;;;;;;14.38;100.00;100905.19;5057859;28;20028;-76
2023/07/16 02:52:49;;;;;;;9.65;5.15;;;;;;;14.34;100.00;100910.63;5055432;28;20017;-76
2023/07/16 02:55:14;;;;;;;10.18;4.63;;;;;;;14.35;100.00;100914.94;5055740;28;20468;-76
2023/07/16 02:57:39;;;;;;;11.60;4.80;;;;;;;14.29;100.00;100916.91;5056331;28;20024;-76
2023/07/16 03:00:05;;;;;;;12.05;5.18;;;;;;;14.29;100.00;100916.91;5048231;28;20116;-76
2023/07/16 03:02:31;;;;;;;11.23;5.00;;;;;;;14.23;100.00;100916.28;5057424;28;20413;-76
2023/07/16 03:04:56;;;;;;;9.63;4.93;;;;;;;14.24;100.00;100918.84;5051383;28;20457;-76
2023/07/16 03:07:21;;;;;;;16.55;4.88;;;;;;;14.17;100.00;100921.75;5060069;28;20032;-76
2023/07/16 03:09:47;;;;;;;11.18;4.63;;;;;;;14.14;100.00;100920.09;5059176;28;20120;-76
2023/07/16 03:12:12;;;;;;;14.32;5.38;;;;;;;14.08;100.00;100922.94;5051681;28;20029;-76
2023/07/16 03:14:37;;;;;;;14.52;5.25;;;;;;;14.04;100.00;100923.97;5061618;28;20468;-76
2023/07/16 03:17:03;;;;;;;12.90;4.85;;;;;;;14.01;100.00;100926.69;5056233;28;20039;-76
2023/07/16 03:19:28;;;;;;;10.80;4.80;;;;;;;13.95;100.00;100929.53;5052651;28;20032;-76
2023/07/16 03:21:53;;;;;;;12.95;4.85;;;;;;;13.85;100.00;100938.66;5055266;28;20064;-76
2023/07/16 03:24:19;;;;;;;13.65;4.90;;;;;;;13.82;100.00;100935.22;5054475;28;20017;-75
2023/07/16 03:26:44;;;;;;;17.90;5.90;;;;;;;13.77;100.00;100936.31;5055263;28;20071;-76
2023/07/16 03:29:09;;;;;;;15.00;5.32;;;;;;;13.70;100.00;100940.91;5055302;28;20433;-75
2023/07/16 03:31:35;;;;;;;15.45;5.18;;;;;;;13.64;100.00;100938.50;5051158;28;20090;-76
2023/07/16 03:34:00;;;;;;;12.40;6.13;;;;;;;13.61;100.00;100950.84;5055304;28;20437;-76
2023/07/16 03:36:25;;;;;;;13.38;5.53;;;;;;;13.53;100.00;100944.09;5051402;28;20040;-76
2023/07/16 03:38:51;;;;;;;15.70;5.18;;;;;;;13.50;100.00;100944.19;5054403;28;20065;-76
2023/07/16 03:41:16;;;;;;;14.57;5.82;;;;;;;13.48;100.00;100948.63;5055276;28;20041;-76
2023/07/16 03:43:42;;;;;;;13.80;5.25;;;;;;;13.43;100.00;100947.91;5054012;28;20492;-76
2023/07/16 03:46:08;;;;;;;11.45;5.18;;;;;;;13.43;100.00;100952.31;5054244;28;20104;-76
2023/07/16 03:48:33;;;;;;;13.13;5.47;;;;;;;13.35;100.00;100956.03;5054553;28;20032;-76
2023/07/16 03:50:59;;;;;;;13.05;5.20;;;;;;;13.30;100.00;100951.84;5052894;28;20028;-76
2023/07/16 03:53:24;;;;;;;10.50;5.25;;;;;;;13.35;100.00;100963.06;5052321;28;20028;-76
2023/07/16 03:55:49;;;;;;;12.43;5.55;;;;;;;13.33;100.00;100963.09;5054682;28;20400;-76
2023/07/16 03:58:15;;;;;;;17.30;5.50;;;;;;;13.32;100.00;100958.75;5054410;28;20051;-76
2023/07/16 04:00:41;;;;;;;13.27;4.93;;;;;;;13.29;100.00;100973.72;5053765;28;20029;-76
2023/07/16 04:03:06;;;;;;;12.43;5.22;;;;;;;13.30;100.00;100975.41;5054364;28;20477;-76
2023/07/16 04:05:31;;;;;;;15.63;5.75;;;;;;;13.21;100.00;100971.31;5054082;28;20033;-76
2023/07/16 04:07:57;;;;;;;14.35;5.38;;;;;;;13.25;100.00;100975.59;5053888;28;20035;-76
2023/07/16 04:10:22;;;;;;;10.73;5.65;;;;;;;13.24;100.00;100980.81;5054328;28;20118;-76
2023/07/16 04:12:47;;;;;;;21.52;5.82;;;;;;;13.23;100.00;100979.13;5054274;28;20165;-76
2023/07/16 04:15:13;;;;;;;11.90;5.22;;;;;;;13.19;100.00;100978.34;5053906;28;20048;-75
2023/07/16 04:17:38;;;;;;;13.35;6.00;;;;;;;13.23;100.00;100985.19;5054301;28;20017;-75
2023/07/16 04:20:04;;;;;;;14.38;5.50;;;;;;;13.23;100.00;100997.44;5054302;28;20483;-76
2023/07/16 04:22:30;;;;;;;13.52;5.70;;;;;;;13.23;100.00;101005.28;5053432;28;20029;-76
2023/07/16 04:24:55;;;;;;;19.77;6.32;;;;;;;13.26;100.00;101010.47;5054484;28;20349;-76
2023/07/16 04:27:20;;;;;;;14.85;5.63;;;;;;;13.24;100.00;101014.84;5054044;28;20035;-76
2023/07/16 04:29:46;;;;;;;19.15;6.28;;;;;;;13.30;100.00;101017.31;5053074;28;20436;-76
2023/07/16 04:32:11;;;;;;;16.27;6.20;;;;;;;13.27;100.00;101013.03;5054147;28;20134;-76
2023/07/16 04:34:36;;;;;;;15.38;6.25;;;;;;;13.25;100.00;101020.09;5053216;28;20029;-76
2023/07/16 04:37:02;;;;;;;12.25;5.95;;;;;;;13.26;100.00;101020.94;5054236;28;20082;-76
2023/07/16 04:39:27;;;;;;;11.52;6.07;;;;;;;13.29;100.00;101032.16;5053572;28;20384;-76
2023/07/16 04:41:52;;;;;;;17.48;6.47;;;;;;;13.29;100.00;101020.84;5053380;28;20137;-76
2023/07/16 04:44:18;;;;;;;13.60;6.57;;;;;;;13.33;100.00;101028.53;5054235;28;20494;-76
2023/07/16 04:46:43;;;;;;;18.38;6.20;;;;;;;13.35;100.00;101026.75;5053595;28;20460;-76
2023/07/16 04:49:08;;;;;;;15.00;5.90;;;;;;;13.38;100.00;101038.88;5053617;28;20033;-76
2023/07/16 04:51:33;;;;;;;11.20;6.28;;;;;;;13.44;100.00;101041.31;5053375;28;20051;-76
2023/07/16 04:53:59;;;;;;;13.45;5.80;;;;;;;13.44;100.00;101043.06;5053341;28;20041;-76
2023/07/16 04:56:24;;;;;;;16.63;6.47;;;;;;;13.43;100.00;101038.72;5053044;28;20039;-76
2023/07/16 04:58:49;;;;;;;18.70;6.10;;;;;;;13.47;100.00;101040.34;5053221;28;20036;-76
2023/07/16 05:01:15;;;;;;;14.77;7.22;;;;;;;13.51;100.00;101040.19;5050624;28;20032;-76
2023/07/16 05:03:40;;;;;;;11.40;6.25;;;;;;;13.49;100.00;101042.00;5051593;28;20064;-76
2023/07/16 05:06:05;;;;;;;15.55;6.25;;;;;;;13.48;100.00;101044.69;5053774;28;20052;-77
2023/07/16 05:08:31;;;;;;;19.60;7.05;;;;;;;13.47;100.00;101048.19;5053021;28;20025;-76
2023/07/16 05:10:56;;;;;;;13.95;6.22;;;;;;;13.54;100.00;101049.72;5053004;28;20546;-76
2023/07/16 05:13:21;;;;;;;20.75;6.63;;;;;;;13.55;100.00;101054.06;5053472;28;20103;-76
2023/07/16 05:15:47;;;;;;;15.60;5.93;;;;;;;13.56;100.00;101040.03;5053454;28;20491;-76
2023/07/16 05:18:12;;;;;;;14.15;6.47;;;;;;;13.55;100.00;101043.56;5052900;28;20449;-75
2023/07/16 05:20:38;;;;;;;16.20;6.63;;;;;;;13.65;100.00;101047.59;5053006;28;20029;-76
2023/07/16 05:23:03;;;;;;;16.33;6.75;;;;;;;13.68;100.00;101039.66;5052792;28;20473;-76
2023/07/16 05:25:28;;;;;;;13.32;6.43;;;;;;;13.71;100.00;101050.03;5052497;28;20029;-76
2023/07/16 05:27:55;;;;;;;14.73;6.38;;;;;;;13.74;100.00;101051.69;5053234;28;20025;-76
2023/07/16 05:30:20;;;;;;;12.77;6.72;;;;;;;13.81;100.00;101056.66;5052723;28;20090;-76
2023/07/16 05:32:46;;;;;;;17.65;6.40;;;;;;;13.84;100.00;101060.97;5051713;28;20041;-76
2023/07/16 05:35:11;;;;;;;15.15;6.68;;;;;;;13.89;100.00;101058.16;5053355;28;20021;-75
2023/07/16 05:37:36;;;;;;;13.23;6.53;;;;;;;13.91;100.00;101057.22;5052077;28;20575;-75
2023/07/16 05:40:03;;;;;;;14.23;7.20;;;;;;;13.93;100.00;101054.53;5052432;28;20094;-76
2023/07/16 05:42:28;;;;;;;16.77;6.90;;;;;;;13.95;100.00;101057.97;5052037;28;20469;-75
2023/07/16 05:44:54;;;;;;;13.20;6.65;;;;;;;13.99;100.00;101065.66;5051189;28;20032;-75
2023/07/16 05:47:19;;;;;;;11.73;6.53;;;;;;;14.07;100.00;101067.19;5052597;28;20064;-75
2023/07/16 05:49:44;;;;;;;13.50;7.13;;;;;;;14.05;100.00;101060.22;5051942;28;20025;-75
2023/07/16 05:52:10;;;;;;;15.25;7.22;;;;;;;14.13;100.00;101069.59;5052439;28;20025;-75
2023/07/16 05:54:35;;;;;;;17.55;7.55;;;;;;;14.17;100.00;101079.91;5052527;28;20104;-75
2023/07/16 05:57:00;;;;;;;16.77;7.57;;;;;;;14.21;100.00;101071.03;5052316;28;20029;-76
2023/07/16 05:59:26;;;;;;;18.15;7.65;;;;;;;14.22;100.00;101072.75;5051901;28;20025;-75
2023/07/16 06:01:51;;;;;;;16.10;7.07;;;;;;;14.26;100.00;101078.75;5052157;28;20097;-75
2023/07/16 06:04:17;;;;;;;18.13;7.40;;;;;;;14.28;100.00;101090.88;5056255;28;20033;-75
2023/07/16 06:06:42;;;;;;;15.20;7.25;;;;;;;14.35;100.00;101088.03;5058154;28;20025;-75
2023/07/16 06:09:07;;;;;;;15.73;7.18;;;;;;;14.40;100.00;101096.63;5060640;28;20553;-75
2023/07/16 06:11:33;;;;;;;17.65;7.47;;;;;;;14.41;100.00;101093.09;5056286;28;20108;-76
2023/07/16 06:13:58;;;;;;;20.10;7.82;;;;;;;14.44;100.00;101099.06;5058698;28;20062;-75
2023/07/16 06:16:24;;;;;;;13.65;7.20;;;;;;;14.52;100.00;101090.97;5057360;28;20108;-76
2023/07/16 06:18:49;;;;;;;16.58;7.65;;;;;;;14.60;100.00;101104.66;5052255;28;20055;-76
2023/07/16 06:21:14;;;;;;;17.17;7.05;;;;;;;14.64;100.00;101103.63;5051607;28;20361;-75
2023/07/16 06:23:40;;;;;;;13.38;7.38;;;;;;;14.67;100.00;101103.53;5051816;28;20079;-76
2023/07/16 06:26:05;;;;;;;15.02;6.57;;;;;;;14.71;100.00;101110.41;5051921;28;20031;-75
2023/07/16 06:28:31;;;;;;;20.42;7.18;;;;;;;14.74;100.00;101114.66;5051512;28;20029;-75
2023/07/16 06:30:56;;;;;;;15.82;7.57;;;;;;;14.77;100.00;101105.81;5051759;28;20037;-75
2023/07/16 06:33:22;;;;;;;14.63;7.05;;;;;;;14.83;100.00;101105.59;5051874;28;20025;-75
2023/07/16 06:35:48;;;;;;;13.57;6.65;;;;;;;14.94;100.00;101114.81;5051385;28;20036;-75
2023/07/16 06:38:14;;;;;;;20.50;7.63;;;;;;;15.02;100.00;101111.88;5052211;28;20025;-76
2023/07/16 06:40:45;;;;;;;15.10;7.40;;;;;;;15.10;100.00;101106.31;5051506;28;20033;-75
2023/07/16 06:43:10;;;;;;;19.23;7.78;;;;;;;15.19;100.00;101105.97;5051401;28;20024;-75
2023/07/16 06:45:35;;;;;;;12.82;7.70;;;;;;;15.23;100.00;101115.44;5051791;28;20045;-75
2023/07/16 06:48:01;;;;;;;17.25;7.70;;;;;;;15.28;100.00;101116.13;5051273;28;20133;-75
2023/07/16 06:50:26;;;;;;;13.32;7.75;;;;;;;15.28;100.00;101112.66;5051502;28;20503;-75
2023/07/16 06:52:51;;;;;;;16.55;8.02;;;;;;;15.34;100.00;101123.78;5047909;28;20576;-75
2023/07/16 06:55:17;;;;;;;16.35;7.28;;;;;;;15.36;100.00;101132.44;5053918;28;20033;-75
2023/07/16 06:57:42;;;;;;;15.48;8.52;;;;;;;15.38;100.00;101125.38;5055829;28;20033;-75
2023/07/16 07:00:10;;;;;;;16.42;7.82;;;;;;;15.34;100.00;101120.31;5052904;28;20033;-75
2023/07/16 07:02:36;;;;;;;16.23;8.27;;;;;;;15.45;100.00;101137.34;5049478;28;20079;-75
2023/07/16 07:05:01;;;;;;;13.38;7.95;;;;;;;15.51;100.00;101128.38;5055636;28;20029;-75
2023/07/16 07:07:26;;;;;;;15.48;7.40;;;;;;;15.61;100.00;101127.09;5055619;28;20496;-75
2023/07/16 07:09:52;;;;;;;15.73;8.13;;;;;;;15.67;100.00;101132.13;5055110;28;20542;-75
2023/07/16 07:12:17;;;;;;;18.25;9.02;;;;;;;15.75;100.00;101138.84;5055675;28;20029;-75
2023/07/16 07:14:42;;;;;;;14.00;7.93;;;;;;;15.81;100.00;101144.72;5054997;28;20031;-75
2023/07/16 07:17:08;;;;;;;14.70;7.90;;;;;;;15.91;100.00;101137.31;5055011;28;20021;-75
2023/07/16 07:19:33;;;;;;;15.80;8.18;;;;;;;15.91;100.00;101150.47;5054935;28;20559;-76
2023/07/16 07:21:58;;;;;;;14.63;7.13;;;;;;;16.02;100.00;101153.53;5055263;28;20031;-76
2023/07/16 07:24:24;;;;;;;15.27;8.10;;;;;;;16.03;100.00;101149.13;5054363;28;20079;-76
2023/07/16 07:26:49;;;;;;;17.50;7.68;;;;;;;16.04;100.00;101149.03;5055256;28;20032;-75
2023/07/16 07:29:14;;;;;;;14.45;8.05;;;;;;;16.20;100.00;101154.53;5055221;28;20033;-75
2023/07/16 07:31:40;;;;;;;17.48;7.30;;;;;;;16.24;100.00;101157.88;5053895;28;20088;-75
2023/07/16 07:34:05;;;;;;;16.42;7.88;;;;;;;16.28;100.00;101160.31;5055433;28;20025;-75
2023/07/16 07:36:30;;;;;;;18.90;7.60;;;;;;;16.36;100.00;101146.84;5054675;28;20036;-76
2023/07/16 07:38:56;;;;;;;21.30;8.23;;;;;;;16.46;100.00;101161.31;5054457;28;20480;-75
2023/07/16 07:41:21;;;;;;;14.43;7.82;;;;;;;16.38;100.00;101156.38;5055116;28;20068;-75
2023/07/16 07:43:46;;;;;;;12.85;7.30;;;;;;;16.48;100.00;101159.47;5054509;28;20036;-74
2023/07/16 07:46:12;;;;;;;14.30;7.55;;;;;;;16.61;100.00;101162.41;5054674;28;20029;-75
2023/07/16 07:48:37;;;;;;;18.70;7.97;;;;;;;16.73;100.00;101161.03;5054689;28;20093;-75
2023/07/16 07:51:02;;;;;;;13.95;7.85;;;;;;;16.87;100.00;101174.47;5054453;28;20108;-75
2023/07/16 07:53:28;;;;;;;14.38;6.55;;;;;;;16.95;100.00;101161.81;5049029;28;20111;-75
2023/07/16 07:55:54;;;;;;;15.48;7.90;;;;;;;16.99;100.00;101166.03;5054196;28;20060;-75
2023/07/16 07:58:19;;;;;;;18.25;7.95;;;;;;;17.12;100.00;101174.22;5052029;28;20033;-75
2023/07/16 08:00:45;;;;;;;10.85;7.25;;;;;;;17.21;100.00;101173.81;5049324;28;20040;-75
2023/07/16 08:03:10;;;;;;;14.13;7.25;;;;;;;17.14;100.00;101153.94;5053999;28;20032;-74
2023/07/16 08:05:35;;;;;;;11.90;6.90;;;;;;;17.18;100.00;101162.56;5053344;28;20048;-76
2023/07/16 08:08:01;;;;;;;11.98;7.93;;;;;;;17.25;100.00;101161.34;5054615;28;20078;-75
2023/07/16 08:10:26;;;;;;;13.68;7.72;;;;;;;17.38;100.00;101178.31;5053363;28;20044;-75
2023/07/16 08:12:51;;;;;;;11.25;6.65;;;;;;;17.47;100.00;101175.25;5052819;28;20040;-75
2023/07/16 08:15:18;;;;;;;10.63;6.43;;;;;;;17.48;100.00;101166.41;5054116;28;20063;-75
2023/07/16 08:17:44;;;;;;;11.00;6.35;;;;;;;17.60;100.00;101169.41;5053621;28;20032;-75
2023/07/16 08:20:10;;;;;;;13.38;6.85;;;;;;;17.55;100.00;101162.53;5053357;28;20124;-74
2023/07/16 08:22:36;;;;;;;13.43;6.72;;;;;;;17.63;100.00;101180.66;5054040;28;20082;-75
2023/07/16 08:25:03;;;;;;;10.75;6.35;;;;;;;17.63;100.00;101177.16;5054063;28;20063;-75
2023/07/16 08:27:29;;;;;;;16.08;6.43;;;;;;;17.67;100.00;101165.53;5053076;28;20543;-76
2023/07/16 08:29:54;;;;;;;10.98;6.93;;;;;;;17.83;100.00;101168.31;5053748;28;20152;-75
2023/07/16 08:32:19;;;;;;;14.07;6.50;;;;;;;17.82;100.00;101180.66;5053724;28;20040;-75
2023/07/16 08:34:45;;;;;;;11.75;6.82;;;;;;;17.92;100.00;101174.00;5052149;28;21327;-74
2023/07/16 08:37:10;;;;;;;12.68;6.57;;;;;;;18.12;100.00;101172.19;5049552;28;20037;-74
2023/07/16 08:39:35;;;;;;;11.77;6.60;;;;;;;18.46;100.00;101180.09;5042447;28;20057;-74
2023/07/16 08:42:01;;;;;;;14.07;7.55;;;;;;;18.80;100.00;101181.03;5052583;28;20028;-75
2023/07/16 08:44:28;;;;;;;15.02;6.60;;;;;;;18.97;100.00;101176.66;5053282;28;20674;-75
2023/07/16 08:46:54;;;;;;;14.15;6.22;;;;;;;19.23;100.00;101172.56;5053094;28;20127;-75
2023/07/16 08:49:21;;;;;;;15.38;6.63;;;;;;;19.51;100.00;101185.16;5052832;28;20473;-75
2023/07/16 08:51:48;;;;;;;13.73;5.60;;;;;;;19.71;96.06;101184.06;5053330;28;20029;-77
2023/07/16 08:54:16;;;;;;;10.90;6.25;;;;;;;19.83;98.66;101178.94;5052103;28;20104;-76
2023/07/16 08:56:43;;;;;;;11.45;5.68;;;;;;;19.79;94.71;101188.00;5051109;28;20552;-75
2023/07/16 08:59:09;;;;;;;11.57;6.18;;;;;;;19.63;98.67;101188.00;5051357;28;20443;-75
2023/07/16 09:01:36;;;;;;;11.63;6.32;;;;;;;19.53;97.30;101191.22;5052200;28;20059;-75
2023/07/16 09:04:04;;;;;;;9.70;5.53;;;;;;;19.46;93.63;101203.06;5051207;28;20033;-74
2023/07/16 09:06:30;;;;;;;12.50;5.35;;;;;;;19.57;93.69;101198.88;5058018;28;20024;-74
2023/07/16 09:08:55;;;;;;;9.20;5.55;;;;;;;19.82;90.94;101186.97;5053029;28;20039;-74
2023/07/16 09:11:22;;;;;;;11.45;5.53;;;;;;;20.06;90.07;101208.53;5053358;28;20029;-74
2023/07/16 09:13:50;;;;;;;9.77;5.32;;;;;;;20.46;92.13;101207.03;5052778;28;20047;-74
2023/07/16 09:16:18;;;;;;;11.15;6.28;;;;;;;20.62;83.18;101211.47;5051368;28;20027;-74
2023/07/16 09:18:43;;;;;;;8.35;5.82;;;;;;;20.52;83.71;101211.16;5051705;28;20025;-74
2023/07/16 09:21:09;;;;;;;13.02;5.45;;;;;;;20.50;81.98;101216.53;5053400;28;20500;-74
2023/07/16 09:23:34;;;;;;;10.05;5.45;;;;;;;20.46;80.40;101215.00;5051773;28;20021;-74
2023/07/16 09:26:00;;;;;;;12.02;5.60;;;;;;;20.61;80.45;101207.13;5049421;28;20036;-74
2023/07/16 09:28:26;;;;;;;9.68;5.07;;;;;;;20.89;86.69;101208.94;5051727;28;20029;-74
2023/07/16 09:30:52;;;;;;;9.48;5.38;;;;;;;21.02;84.09;101218.69;5052009;28;20040;-73
2023/07/16 09:33:24;;;;;;;9.45;5.47;;;;;;;21.19;81.44;101212.38;5057817;28;20167;-74
2023/07/16 09:35:50;;;;;;;11.10;4.82;;;;;;;21.17;72.75;101218.72;5051747;28;20035;-74
2023/07/16 09:38:16;;;;;;;9.05;5.20;;;;;;;21.26;78.76;101213.69;5051601;28;20029;-74
2023/07/16 09:40:44;;;;;;;7.43;5.20;;;;;;;21.33;80.31;101213.31;5052829;28;20040;-74
2023/07/16 09:43:11;;;;;;;8.98;4.53;;;;;;;21.38;73.75;101227.16;5051290;28;20530;-74
2023/07/16 09:45:37;;;;;;;10.93;5.10;;;;;;;21.42;70.60;101226.91;5052035;28;20127;-74
2023/07/16 09:48:03;;;;;;;6.93;5.13;;;;;;;21.51;72.86;101220.97;5051418;28;20055;-74
2023/07/16 09:50:31;;;;;;;6.65;4.88;;;;;;;21.41;73.15;101225.16;5051183;28;20484;-74
2023/07/16 09:52:57;;;;;;;9.63;4.90;;;;;;;21.21;71.60;101239.63;5049866;28;20102;-74
2023/07/16 09:55:24;;;;;;;19.65;5.80;;;;;;;21.12;76.17;101234.91;5046419;28;20049;-74
2023/07/16 09:57:53;;;;;;;8.20;4.75;;;;;;;21.34;76.39;101233.59;5050843;28;20475;-74
2023/07/16 10:00:20;;;;;;;11.52;5.28;;;;;;;21.58;73.31;101231.22;5050296;28;20025;-74
2023/07/16 10:02:46;;;;;;;9.75;5.18;;;;;;;21.69;73.61;101236.69;5050719;28;20055;-74
2023/07/16 10:05:16;;;;;;;9.07;5.22;;;;;;;21.90;73.29;101243.28;5050869;28;20362;-74
2023/07/16 10:07:43;;;;;;;11.90;4.97;;;;;;;22.04;72.23;101247.72;5052639;28;20095;-74
2023/07/16 10:10:10;;;;;;;8.07;5.40;;;;;;;22.12;72.16;101250.69;5051920;28;20029;-74
2023/07/16 10:12:37;;;;;;;8.07;4.80;;;;;;;22.44;66.98;101258.38;5051281;28;20025;-74
2023/07/16 10:15:04;;;;;;;10.98;5.28;;;;;;;22.40;68.46;101256.88;5050382;28;20476;-75
2023/07/16 10:17:31;;;;;;;10.15;5.22;;;;;;;22.38;67.49;101264.94;5054342;28;20048;-75
2023/07/16 10:20:12;;;;;;;8.57;4.65;;;;;;;22.18;66.69;101268.91;5056736;28;20184;-75
2023/07/16 10:22:41;;;;;;;11.63;5.32;;;;;;;22.34;66.27;101271.41;5047641;28;20032;-74
2023/07/16 10:25:18;;;;;;;9.02;5.03;;;;;;;22.73;67.94;101272.38;5049730;28;20025;-74
2023/07/16 10:27:45;;;;;;;8.27;4.75;;;;;;;22.93;67.02;101270.16;5048822;28;20021;-74
2023/07/16 10:30:11;;;;;;;9.50;5.07;;;;;;;23.11;63.40;101280.38;5051940;28;20053;-74
2023/07/16 10:32:37;;;;;;;10.55;4.95;;;;;;;23.20;60.12;101265.59;5049637;28;20029;-74
2023/07/16 10:35:04;;;;;;;9.52;5.47;;;;;;;23.01;64.67;101263.38;5050597;28;20440;-74
2023/07/16 10:37:29;;;;;;;10.27;5.15;;;;;;;22.73;67.32;101261.75;5044230;28;20411;-74
2023/07/16 10:39:57;;;;;;;8.88;4.97;;;;;;;22.85;59.93;101266.19;5052004;28;20024;-74
2023/07/16 10:42:23;;;;;;;9.40;4.72;;;;;;;23.08;60.84;101264.66;5054774;28;20051;-74
2023/07/16 10:44:51;;;;;;;12.35;5.22;;;;;;;23.06;61.47;101271.91;5051267;28;20021;-74
2023/07/16 10:47:31;;;;;;;9.93;4.57;;;;;;;23.07;61.67;101283.38;5048322;28;20036;-73
2023/07/16 10:49:57;;;;;;;10.07;4.55;;;;;;;22.85;60.56;101287.47;5050816;28;20044;-75
2023/07/16 10:52:23;;;;;;;7.57;4.93;;;;;;;22.79;63.30;101287.91;5051895;28;20033;-74
2023/07/16 10:54:55;;;;;;;6.45;4.50;;;;;;;22.76;63.13;101296.09;5048304;28;20039;-74
2023/07/16 10:57:24;;;;;;;9.38;4.60;;;;;;;22.49;61.49;101287.28;5050590;28;20025;-75
2023/07/16 10:59:58;;;;;;;12.68;4.60;;;;;;;22.29;64.89;101302.72;5049762;28;20025;-75
2023/07/16 11:02:25;;;;;;;10.80;4.40;;;;;;;21.93;64.05;101300.63;5048188;28;20042;-75
2023/07/16 11:04:54;;;;;;;7.93;4.72;;;;;;;21.78;66.37;101306.88;5049744;28;20029;-76
2023/07/16 11:07:21;;;;;;;8.88;5.03;;;;;;;21.79;64.33;101306.81;5048354;28;20037;-74